sensor_id;sensor_type;location;lat;lon;timestamp;pressure;altitude;pressure_sealevel;temperature;humidity
51687;BME280;37774;52.192;4.584;2023-03-13T00:01:35;100738.41;;;8.03;100.00
51687;BME280;37774;52.192;4.584;2023-03-13T00:04:03;100516.63;;;6.75;100.00
51687;BME280;37774;52.192;4.584;2023-03-13T00:06:33;100767.75;;;8.28;100.00
51687;BME280;37774;52.192;4.584;2023-03-13T00:09:01;100744.44;;;8.11;100.00
51687;BME280;37774;52.192;4.584;2023-03-13T00:11:28;100776.38;;;8.23;100.00
51687;BME280;37774;52.192;4.584;2023-03-13T00:13:57;100748.72;;;7.95;100.00
51687;BME280;37774;52.192;4.584;2023-03-13T00:16:25;100795.34;;;8.26;100.00
51687;BME280;37774;52.192;4.584;2023-03-13T00:18:53;100862.69;;;8.28;100.00
51687;BME280;37774;52.192;4.584;2023-03-13T00:21:22;100881.69;;;8.33;100.00
51687;BME280;37774;52.192;4.584;2023-03-13T00:23:50;100683.81;;;7.08;100.00
51687;BME280;37774;52.192;4.584;2023-03-13T00:26:19;100883.38;;;8.22;100.00
51687;BME280;37774;52.192;4.584;2023-03-13T00:28:46;100868.69;;;8.11;100.00
51687;BME280;37774;52.192;4.584;2023-03-13T00:31:17;100886.00;;;8.28;100.00
51687;BME280;37774;52.192;4.584;2023-03-13T00:33:46;100911.91;;;8.37;100.00
51687;BME280;37774;52.192;4.584;2023-03-13T00:36:15;100935.22;;;8.45;100.00
51687;BME280;37774;52.192;4.584;2023-03-13T00:38:42;100955.09;;;8.47;100.00
51687;BME280;37774;52.192;4.584;2023-03-13T00:41:12;100936.06;;;8.36;100.00
51687;BME280;37774;52.192;4.584;2023-03-13T00:43:40;100968.88;;;8.42;100.00
51687;BME280;37774;52.192;4.584;2023-03-13T00:46:07;100997.44;;;8.53;100.00
51687;BME280;37774;52.192;4.584;2023-03-13T00:48:35;100980.97;;;8.41;100.00
51687;BME280;37774;52.192;4.584;2023-03-13T00:51:03;100970.59;;;8.32;100.00
51687;BME280;37774;52.192;4.584;2023-03-13T00:53:30;100983.56;;;8.41;100.00
51687;BME280;37774;52.192;4.584;2023-03-13T00:55:59;100998.31;;;8.55;100.00
51687;BME280;37774;52.192;4.584;2023-03-13T00:58:29;100951.69;;;8.55;100.00
51687;BME280;37774;52.192;4.584;2023-03-13T01:01:04;100725.41;;;7.73;100.00
51687;BME280;37774;52.192;4.584;2023-03-13T01:03:31;100892.13;;;8.64;100.00
51687;BME280;37774;52.192;4.584;2023-03-13T01:06:00;100914.59;;;8.73;100.00
51687;BME280;37774;52.192;4.584;2023-03-13T01:08:28;100892.13;;;8.61;100.00
51687;BME280;37774;52.192;4.584;2023-03-13T01:10:58;100935.31;;;8.74;100.00
51687;BME280;37774;52.192;4.584;2023-03-13T01:13:27;100842.81;;;8.21;100.00
51687;BME280;37774;52.192;4.584;2023-03-13T01:15:54;100916.31;;;8.66;100.00
51687;BME280;37774;52.192;4.584;2023-03-13T01:18:21;100938.81;;;8.81;100.00
51687;BME280;37774;52.192;4.584;2023-03-13T01:20:48;100886.06;;;8.50;100.00
51687;BME280;37774;52.192;4.584;2023-03-13T01:23:14;100949.16;;;8.84;100.00
51687;BME280;37774;52.192;4.584;2023-03-13T01:25:41;100899.03;;;8.65;100.00
51687;BME280;37774;52.192;4.584;2023-03-13T01:28:08;101023.47;;;8.96;100.00
51687;BME280;37774;52.192;4.584;2023-03-13T01:30:36;101043.38;;;9.02;100.00
51687;BME280;37774;52.192;4.584;2023-03-13T01:33:03;100786.56;;;7.57;100.00
51687;BME280;37774;52.192;4.584;2023-03-13T01:35:29;101000.97;;;8.83;100.00
51687;BME280;37774;52.192;4.584;2023-03-13T01:37:56;101048.59;;;9.13;100.00
51687;BME280;37774;52.192;4.584;2023-03-13T01:40:23;100984.53;;;8.65;100.00
51687;BME280;37774;52.192;4.584;2023-03-13T01:42:55;101081.44;;;9.23;100.00
51687;BME280;37774;52.192;4.584;2023-03-13T01:45:53;101074.53;;;9.22;100.00
51687;BME280;37774;52.192;4.584;2023-03-13T01:48:24;100988.00;;;8.62;100.00
51687;BME280;37774;52.192;4.584;2023-03-13T01:50:52;101113.44;;;9.27;100.00
51687;BME280;37774;52.192;4.584;2023-03-13T01:53:20;101171.38;;;9.33;100.00
51687;BME280;37774;52.192;4.584;2023-03-13T01:55:47;101188.66;;;9.34;100.00
51687;BME280;37774;52.192;4.584;2023-03-13T01:58:14;101185.19;;;9.37;100.00
51687;BME280;37774;52.192;4.584;2023-03-13T02:00:42;101191.28;;;9.38;100.00
51687;BME280;37774;52.192;4.584;2023-03-13T02:03:14;101224.97;;;9.39;100.00
51687;BME280;37774;52.192;4.584;2023-03-13T02:05:43;101242.31;;;9.42;100.00
51687;BME280;37774;52.192;4.584;2023-03-13T02:08:15;101192.94;;;9.28;100.00
51687;BME280;37774;52.192;4.584;2023-03-13T02:10:49;101265.63;;;9.39;100.00
51687;BME280;37774;52.192;4.584;2023-03-13T02:13:18;101361.66;;;9.48;100.00
51687;BME280;37774;52.192;4.584;2023-03-13T02:15:46;101464.59;;;9.52;100.00
51687;BME280;37774;52.192;4.584;2023-03-13T02:18:15;101514.66;;;9.39;100.00
51687;BME280;37774;52.192;4.584;2023-03-13T02:20:42;101607.41;;;9.63;100.00
51687;BME280;37774;52.192;4.584;2023-03-13T02:23:14;101597.88;;;9.62;100.00
51687;BME280;37774;52.192;4.584;2023-03-13T02:25:46;101562.34;;;9.53;100.00
51687;BME280;37774;52.192;4.584;2023-03-13T02:28:16;101597.06;;;9.71;100.00
51687;BME280;37774;52.192;4.584;2023-03-13T02:30:46;101560.53;;;9.47;100.00
51687;BME280;37774;52.192;4.584;2023-03-13T02:33:15;101630.00;;;9.78;100.00
51687;BME280;37774;52.192;4.584;2023-03-13T02:35:43;101609.22;;;9.73;100.00
51687;BME280;37774;52.192;4.584;2023-03-13T02:38:13;101605.84;;;9.84;100.00
51687;BME280;37774;52.192;4.584;2023-03-13T02:40:45;101380.81;;;8.51;100.00
51687;BME280;37774;52.192;4.584;2023-03-13T02:43:15;101604.13;;;9.86;100.00
51687;BME280;37774;52.192;4.584;2023-03-13T02:46:01;101604.22;;;10.00;100.00
51687;BME280;37774;52.192;4.584;2023-03-13T02:48:33;101382.56;;;8.54;100.00
51687;BME280;37774;52.192;4.584;2023-03-13T02:51:02;101620.66;;;10.02;100.00
51687;BME280;37774;52.192;4.584;2023-03-13T02:53:31;101544.34;;;9.76;100.00
51687;BME280;37774;52.192;4.584;2023-03-13T02:56:02;101600.00;;;10.11;100.00
51687;BME280;37774;52.192;4.584;2023-03-13T02:58:37;101574.94;;;10.22;100.00
51687;BME280;37774;52.192;4.584;2023-03-13T03:01:05;101574.13;;;10.30;100.00
51687;BME280;37774;52.192;4.584;2023-03-13T03:03:32;101537.75;;;10.33;100.00
51687;BME280;37774;52.192;4.584;2023-03-13T03:06:00;101634.88;;;10.47;100.00
51687;BME280;37774;52.192;4.584;2023-03-13T03:08:26;101620.13;;;10.48;100.00
51687;BME280;37774;52.192;4.584;2023-03-13T03:10:53;101624.50;;;10.58;100.00
51687;BME280;37774;52.192;4.584;2023-03-13T03:13:21;101576.03;;;10.65;100.00
51687;BME280;37774;52.192;4.584;2023-03-13T03:15:48;101261.00;;;8.82;100.00
51687;BME280;37774;52.192;4.584;2023-03-13T03:18:15;101537.09;;;10.73;100.00
51687;BME280;37774;52.192;4.584;2023-03-13T03:20:41;101563.06;;;10.77;100.00
51687;BME280;37774;52.192;4.584;2023-03-13T03:23:08;101380.16;;;10.35;100.00
51687;BME280;37774;52.192;4.584;2023-03-13T03:25:35;101384.56;;;10.73;100.00
51687;BME280;37774;52.192;4.584;2023-03-13T03:28:02;101249.34;;;9.91;100.00
51687;BME280;37774;52.192;4.584;2023-03-13T03:30:30;101123.84;;;9.41;100.00
51687;BME280;37774;52.192;4.584;2023-03-13T03:32:57;101247.66;;;10.19;100.00
51687;BME280;37774;52.192;4.584;2023-03-13T03:35:24;101350.75;;;10.82;100.00
51687;BME280;37774;52.192;4.584;2023-03-13T03:37:50;101345.56;;;10.86;100.00
51687;BME280;37774;52.192;4.584;2023-03-13T03:40:17;101331.69;;;10.80;100.00
51687;BME280;37774;52.192;4.584;2023-03-13T03:42:45;101290.13;;;10.62;100.00
51687;BME280;37774;52.192;4.584;2023-03-13T03:45:12;101319.56;;;10.82;100.00
51687;BME280;37774;52.192;4.584;2023-03-13T03:47:41;101314.38;;;10.78;100.00
51687;BME280;37774;52.192;4.584;2023-03-13T03:50:09;101289.28;;;10.61;100.00
51687;BME280;37774;52.192;4.584;2023-03-13T03:52:36;101281.47;;;10.50;100.00
51687;BME280;37774;52.192;4.584;2023-03-13T03:55:03;101316.09;;;10.74;100.00
51687;BME280;37774;52.192;4.584;2023-03-13T03:57:30;101278.88;;;10.50;100.00
51687;BME280;37774;52.192;4.584;2023-03-13T03:59:57;101262.38;;;10.31;100.00
51687;BME280;37774;52.192;4.584;2023-03-13T04:02:24;101328.25;;;10.75;100.00
51687;BME280;37774;52.192;4.584;2023-03-13T04:04:52;101305.72;;;10.54;100.00
51687;BME280;37774;52.192;4.584;2023-03-13T04:07:19;101344.69;;;10.77;100.00
51687;BME280;37774;52.192;4.584;2023-03-13T04:09:45;101338.63;;;10.69;100.00
51687;BME280;37774;52.192;4.584;2023-03-13T04:12:12;101375.91;;;10.87;100.00
51687;BME280;37774;52.192;4.584;2023-03-13T04:14:39;101395.84;;;10.89;100.00
51687;BME280;37774;52.192;4.584;2023-03-13T04:17:06;101390.63;;;10.88;100.00
51687;BME280;37774;52.192;4.584;2023-03-13T04:19:32;101399.28;;;10.87;100.00
51687;BME280;37774;52.192;4.584;2023-03-13T04:22:00;101174.88;;;9.51;100.00
51687;BME280;37774;52.192;4.584;2023-03-13T04:24:27;101385.44;;;10.75;100.00
51687;BME280;37774;52.192;4.584;2023-03-13T04:26:54;101390.63;;;10.94;100.00
51687;BME280;37774;52.192;4.584;2023-03-13T04:29:21;101339.50;;;10.65;100.00
51687;BME280;37774;52.192;4.584;2023-03-13T04:31:48;101117.75;;;9.31;100.00
51687;BME280;37774;52.192;4.584;2023-03-13T04:34:15;101351.59;;;11.03;100.00
51687;BME280;37774;52.192;4.584;2023-03-13T04:36:41;101321.28;;;10.99;100.00
51687;BME280;37774;52.192;4.584;2023-03-13T04:39:10;101298.72;;;11.04;100.00
51687;BME280;37774;52.192;4.584;2023-03-13T04:41:36;101157.63;;;10.28;100.00
51687;BME280;37774;52.192;4.584;2023-03-13T04:44:03;101244.97;;;11.06;100.00
51687;BME280;37774;52.192;4.584;2023-03-13T04:46:30;101228.47;;;11.20;100.00
51687;BME280;37774;52.192;4.584;2023-03-13T04:48:57;101191.19;;;11.11;100.00
51687;BME280;37774;52.192;4.584;2023-03-13T04:51:23;101192.03;;;11.21;100.00
51687;BME280;37774;52.192;4.584;2023-03-13T04:53:50;101118.47;;;10.96;100.00
51687;BME280;37774;52.192;4.584;2023-03-13T04:56:21;101147.84;;;11.18;100.00
51687;BME280;37774;52.192;4.584;2023-03-13T04:58:49;101103.69;;;11.03;100.00
51687;BME280;37774;52.192;4.584;2023-03-13T05:01:16;101102.75;;;11.21;100.00
51687;BME280;37774;52.192;4.584;2023-03-13T05:03:42;101089.78;;;11.13;100.00
51687;BME280;37774;52.192;4.584;2023-03-13T05:06:10;101069.78;;;11.23;100.00
51687;BME280;37774;52.192;4.584;2023-03-13T05:08:37;100937.53;;;10.59;100.00
51687;BME280;37774;52.192;4.584;2023-03-13T05:11:04;100950.38;;;10.89;100.00
51687;BME280;37774;52.192;4.584;2023-03-13T05:13:32;100940.81;;;10.91;100.00
51687;BME280;37774;52.192;4.584;2023-03-13T05:15:59;101033.38;;;11.20;100.00
51687;BME280;37774;52.192;4.584;2023-03-13T05:18:26;100938.28;;;10.81;100.00
51687;BME280;37774;52.192;4.584;2023-03-13T05:20:53;100857.84;;;10.64;100.00
51687;BME280;37774;52.192;4.584;2023-03-13T05:23:20;100934.50;;;11.23;100.00
51687;BME280;37774;52.192;4.584;2023-03-13T05:25:47;100878.19;;;11.19;100.00
51687;BME280;37774;52.192;4.584;2023-03-13T05:28:13;100746.84;;;10.76;100.00
51687;BME280;37774;52.192;4.584;2023-03-13T05:30:41;100770.63;;;11.21;100.00
51687;BME280;37774;52.192;4.584;2023-03-13T05:33:08;100673.13;;;10.81;100.00
51687;BME280;37774;52.192;4.584;2023-03-13T05:35:36;100652.34;;;10.81;100.00
51687;BME280;37774;52.192;4.584;2023-03-13T05:38:03;100595.22;;;10.77;100.00
51687;BME280;37774;52.192;4.584;2023-03-13T05:40:29;100547.53;;;10.79;100.00
51687;BME280;37774;52.192;4.584;2023-03-13T05:42:56;100355.59;;;9.87;100.00
51687;BME280;37774;52.192;4.584;2023-03-13T05:45:24;100548.44;;;11.39;100.00
51687;BME280;37774;52.192;4.584;2023-03-13T05:47:52;100435.38;;;11.04;100.00
51687;BME280;37774;52.192;4.584;2023-03-13T05:50:19;100423.72;;;11.29;100.00
51687;BME280;37774;52.192;4.584;2023-03-13T05:52:46;100359.97;;;11.04;100.00
51687;BME280;37774;52.192;4.584;2023-03-13T05:55:13;100374.19;;;11.35;100.00
51687;BME280;37774;52.192;4.584;2023-03-13T05:57:43;100353.06;;;11.50;100.00
51687;BME280;37774;52.192;4.584;2023-03-13T06:00:11;100321.78;;;11.53;100.00
51687;BME280;37774;52.192;4.584;2023-03-13T06:02:38;100299.56;;;11.38;100.00
51687;BME280;37774;52.192;4.584;2023-03-13T06:05:07;100276.31;;;11.29;100.00
51687;BME280;37774;52.192;4.584;2023-03-13T06:07:34;100322.81;;;11.46;100.00
51687;BME280;37774;52.192;4.584;2023-03-13T06:10:02;100269.47;;;11.23;100.00
51687;BME280;37774;52.192;4.584;2023-03-13T06:12:29;100175.44;;;10.56;100.00
51687;BME280;37774;52.192;4.584;2023-03-13T06:14:56;100315.28;;;11.31;100.00
51687;BME280;37774;52.192;4.584;2023-03-13T06:17:22;100319.72;;;11.25;100.00
51687;BME280;37774;52.192;4.584;2023-03-13T06:19:50;100031.06;;;9.42;100.00
51687;BME280;37774;52.192;4.584;2023-03-13T06:22:18;100298.78;;;10.85;100.00
51687;BME280;37774;52.192;4.584;2023-03-13T06:24:45;100360.03;;;11.01;100.00
51687;BME280;37774;52.192;4.584;2023-03-13T06:27:14;100287.47;;;10.34;100.00
51687;BME280;37774;52.192;4.584;2023-03-13T06:29:40;100411.47;;;10.82;100.00
51687;BME280;37774;52.192;4.584;2023-03-13T06:32:07;100412.59;;;10.64;100.00
51687;BME280;37774;52.192;4.584;2023-03-13T06:34:34;100286.59;;;9.71;100.00
51687;BME280;37774;52.192;4.584;2023-03-13T06:37:02;100192.63;;;10.63;100.00
51687;BME280;37774;52.192;4.584;2023-03-13T06:39:30;100163.44;;;10.48;100.00
51687;BME280;37774;52.192;4.584;2023-03-13T06:41:57;100142.97;;;10.28;100.00
51687;BME280;37774;52.192;4.584;2023-03-13T06:44:24;100196.16;;;10.59;100.00
51687;BME280;37774;52.192;4.584;2023-03-13T06:46:51;99960.00;;;8.99;100.00
51687;BME280;37774;52.192;4.584;2023-03-13T06:49:18;100263.09;;;10.94;100.00
51687;BME280;37774;52.192;4.584;2023-03-13T06:51:45;100233.44;;;10.56;100.00
51687;BME280;37774;52.192;4.584;2023-03-13T06:54:12;100215.09;;;10.65;100.00
51687;BME280;37774;52.192;4.584;2023-03-13T06:56:40;100167.31;;;10.22;100.00
51687;BME280;37774;52.192;4.584;2023-03-13T06:59:07;100139.16;;;9.98;100.00
51687;BME280;37774;52.192;4.584;2023-03-13T07:01:33;100231.00;;;10.47;100.00
51687;BME280;37774;52.192;4.584;2023-03-13T07:04:00;100288.16;;;10.99;100.00
51687;BME280;37774;52.192;4.584;2023-03-13T07:06:27;100283.66;;;11.07;100.00
51687;BME280;37774;52.192;4.584;2023-03-13T07:08:54;100166.09;;;10.44;100.00
51687;BME280;37774;52.192;4.584;2023-03-13T07:11:21;100273.09;;;11.16;100.00
51687;BME280;37774;52.192;4.584;2023-03-13T07:13:49;100201.22;;;10.66;100.00
51687;BME280;37774;52.192;4.584;2023-03-13T07:16:15;100207.09;;;10.78;100.00
51687;BME280;37774;52.192;4.584;2023-03-13T07:18:42;100214.66;;;10.89;100.00
51687;BME280;37774;52.192;4.584;2023-03-13T07:21:10;100251.59;;;11.08;100.00
51687;BME280;37774;52.192;4.584;2023-03-13T07:23:37;100214.84;;;10.79;100.00
51687;BME280;37774;52.192;4.584;2023-03-13T07:26:05;100284.44;;;11.14;100.00
51687;BME280;37774;52.192;4.584;2023-03-13T07:28:32;100176.25;;;10.58;100.00
51687;BME280;37774;52.192;4.584;2023-03-13T07:31:05;100259.19;;;11.19;100.00
51687;BME280;37774;52.192;4.584;2023-03-13T07:33:32;100200.25;;;10.72;100.00
51687;BME280;37774;52.192;4.584;2023-03-13T07:35:59;100210.34;;;10.88;100.00
51687;BME280;37774;52.192;4.584;2023-03-13T07:38:26;100147.50;;;10.69;100.00
51687;BME280;37774;52.192;4.584;2023-03-13T07:40:54;100223.41;;;11.30;100.00
51687;BME280;37774;52.192;4.584;2023-03-13T07:43:21;100127.84;;;10.98;100.00
51687;BME280;37774;52.192;4.584;2023-03-13T07:45:50;100138.75;;;11.15;100.00
51687;BME280;37774;52.192;4.584;2023-03-13T07:48:19;100046.78;;;10.78;100.00
51687;BME280;37774;52.192;4.584;2023-03-13T07:50:46;100132.94;;;11.43;100.00
51687;BME280;37774;52.192;4.584;2023-03-13T07:53:13;100080.22;;;11.36;100.00
51687;BME280;37774;52.192;4.584;2023-03-13T07:55:51;100085.22;;;11.44;100.00
51687;BME280;37774;52.192;4.584;2023-03-13T07:58:18;100075.47;;;11.54;100.00
51687;BME280;37774;52.192;4.584;2023-03-13T08:00:45;100056.28;;;11.58;100.00
51687;BME280;37774;52.192;4.584;2023-03-13T08:03:12;100017.50;;;11.49;100.00
51687;BME280;37774;52.192;4.584;2023-03-13T08:05:41;99971.59;;;11.08;100.00
51687;BME280;37774;52.192;4.584;2023-03-13T08:08:07;100032.72;;;11.64;100.00
51687;BME280;37774;52.192;4.584;2023-03-13T08:10:34;100011.19;;;11.58;100.00
51687;BME280;37774;52.192;4.584;2023-03-13T08:13:01;99935.59;;;11.29;100.00
51687;BME280;37774;52.192;4.584;2023-03-13T08:15:28;99932.53;;;11.11;100.00
51687;BME280;37774;52.192;4.584;2023-03-13T08:17:55;99859.06;;;10.69;100.00
51687;BME280;37774;52.192;4.584;2023-03-13T08:20:22;99974.66;;;11.62;100.00
51687;BME280;37774;52.192;4.584;2023-03-13T08:22:51;99950.22;;;11.33;100.00
51687;BME280;37774;52.192;4.584;2023-03-13T08:25:17;99941.41;;;11.39;100.00
51687;BME280;37774;52.192;4.584;2023-03-13T08:27:44;99894.91;;;11.27;100.00
51687;BME280;37774;52.192;4.584;2023-03-13T08:30:12;99905.28;;;11.61;100.00
51687;BME280;37774;52.192;4.584;2023-03-13T08:32:39;99942.81;;;11.86;100.00
51687;BME280;37774;52.192;4.584;2023-03-13T08:35:07;99692.75;;;10.34;100.00
51687;BME280;37774;52.192;4.584;2023-03-13T08:37:33;99902.31;;;11.75;100.00
51687;BME280;37774;52.192;4.584;2023-03-13T08:40:02;99799.78;;;11.18;100.00
51687;BME280;37774;52.192;4.584;2023-03-13T08:42:35;99792.47;;;11.32;100.00
51687;BME280;37774;52.192;4.584;2023-03-13T08:45:02;99764.41;;;11.10;100.00
51687;BME280;37774;52.192;4.584;2023-03-13T08:47:29;99839.16;;;11.68;100.00
51687;BME280;37774;52.192;4.584;2023-03-13T08:49:56;99844.47;;;11.95;100.00
51687;BME280;37774;52.192;4.584;2023-03-13T08:52:22;99777.47;;;11.72;100.00
51687;BME280;37774;52.192;4.584;2023-03-13T08:54:49;99778.91;;;11.82;100.00
51687;BME280;37774;52.192;4.584;2023-03-13T08:57:18;99828.31;;;12.44;100.00
51687;BME280;37774;52.192;4.584;2023-03-13T08:59:44;99777.22;;;12.38;100.00
51687;BME280;37774;52.192;4.584;2023-03-13T09:02:11;99654.34;;;11.70;100.00
51687;BME280;37774;52.192;4.584;2023-03-13T09:04:45;99411.50;;;10.32;100.00
51687;BME280;37774;52.192;4.584;2023-03-13T09:07:12;99740.41;;;12.49;100.00
51687;BME280;37774;52.192;4.584;2023-03-13T09:09:39;99725.47;;;12.54;100.00
51687;BME280;37774;52.192;4.584;2023-03-13T09:12:07;99611.06;;;11.94;100.00
51687;BME280;37774;52.192;4.584;2023-03-13T09:14:35;99591.22;;;11.63;100.00
51687;BME280;37774;52.192;4.584;2023-03-13T09:17:02;99438.66;;;10.80;100.00
51687;BME280;37774;52.192;4.584;2023-03-13T09:19:29;99625.19;;;12.14;100.00
51687;BME280;37774;52.192;4.584;2023-03-13T09:21:56;99669.72;;;12.33;100.00
51687;BME280;37774;52.192;4.584;2023-03-13T09:24:23;99605.38;;;12.10;100.00
51687;BME280;37774;52.192;4.584;2023-03-13T09:26:50;99638.09;;;12.44;100.00
51687;BME280;37774;52.192;4.584;2023-03-13T09:29:16;99618.97;;;12.45;100.00
51687;BME280;37774;52.192;4.584;2023-03-13T09:31:44;99337.66;;;10.69;100.00
51687;BME280;37774;52.192;4.584;2023-03-13T09:34:11;99586.75;;;12.22;100.00
51687;BME280;37774;52.192;4.584;2023-03-13T09:36:38;99619.31;;;12.60;100.00
51687;BME280;37774;52.192;4.584;2023-03-13T09:39:05;99558.78;;;12.27;100.00
51687;BME280;37774;52.192;4.584;2023-03-13T09:41:35;99626.13;;;12.64;100.00
51687;BME280;37774;52.192;4.584;2023-03-13T09:44:09;99543.53;;;12.17;100.00
51687;BME280;37774;52.192;4.584;2023-03-13T09:46:42;99604.56;;;12.84;100.00
51687;BME280;37774;52.192;4.584;2023-03-13T09:49:24;99549.03;;;12.82;100.00
51687;BME280;37774;52.192;4.584;2023-03-13T09:51:59;99566.06;;;12.91;100.00
51687;BME280;37774;52.192;4.584;2023-03-13T09:54:33;99621.44;;;13.21;100.00
51687;BME280;37774;52.192;4.584;2023-03-13T09:57:05;99505.09;;;12.71;100.00
51687;BME280;37774;52.192;4.584;2023-03-13T09:59:39;99590.25;;;13.18;100.00
51687;BME280;37774;52.192;4.584;2023-03-13T10:02:21;99581.00;;;13.09;100.00
51687;BME280;37774;52.192;4.584;2023-03-13T10:04:55;99578.03;;;13.19;100.00
51687;BME280;37774;52.192;4.584;2023-03-13T10:07:23;99585.97;;;13.15;100.00
51687;BME280;37774;52.192;4.584;2023-03-13T10:09:50;99571.75;;;13.24;100.00
51687;BME280;37774;52.192;4.584;2023-03-13T10:12:19;99545.13;;;13.38;100.00
51687;BME280;37774;52.192;4.584;2023-03-13T10:14:53;99558.00;;;13.43;100.00
51687;BME280;37774;52.192;4.584;2023-03-13T10:17:30;99464.44;;;13.11;100.00
51687;BME280;37774;52.192;4.584;2023-03-13T10:20:00;99517.13;;;13.20;100.00
51687;BME280;37774;52.192;4.584;2023-03-13T10:22:33;99469.78;;;13.08;100.00
51687;BME280;37774;52.192;4.584;2023-03-13T10:25:04;99436.94;;;12.82;100.00
51687;BME280;37774;52.192;4.584;2023-03-13T10:27:42;99536.00;;;13.26;100.00
51687;BME280;37774;52.192;4.584;2023-03-13T10:30:19;99544.78;;;13.48;100.00
51687;BME280;37774;52.192;4.584;2023-03-13T10:32:48;99473.78;;;12.95;100.00
51687;BME280;37774;52.192;4.584;2023-03-13T10:35:21;99457.59;;;12.86;100.00
51687;BME280;37774;52.192;4.584;2023-03-13T10:37:49;99380.53;;;12.35;100.00
51687;BME280;37774;52.192;4.584;2023-03-13T10:40:21;99456.44;;;13.16;100.00
51687;BME280;37774;52.192;4.584;2023-03-13T10:42:50;99507.38;;;13.47;100.00
51687;BME280;37774;52.192;4.584;2023-03-13T10:45:19;99470.56;;;13.10;100.00
51687;BME280;37774;52.192;4.584;2023-03-13T10:47:53;99504.84;;;13.46;100.00
51687;BME280;37774;52.192;4.584;2023-03-13T10:50:23;99510.13;;;13.44;100.00
51687;BME280;37774;52.192;4.584;2023-03-13T10:52:50;99538.06;;;13.63;100.00
51687;BME280;37774;52.192;4.584;2023-03-13T10:55:19;99525.59;;;13.49;100.00
51687;BME280;37774;52.192;4.584;2023-03-13T10:57:56;99517.78;;;13.49;100.00
51687;BME280;37774;52.192;4.584;2023-03-13T11:00:30;99167.84;;;11.21;100.00
51687;BME280;37774;52.192;4.584;2023-03-13T11:02:58;99524.13;;;13.19;100.00
51687;BME280;37774;52.192;4.584;2023-03-13T11:05:31;99531.06;;;13.42;100.00
51687;BME280;37774;52.192;4.584;2023-03-13T11:08:19;99476.69;;;12.87;100.00
51687;BME280;37774;52.192;4.584;2023-03-13T11:10:55;99522.91;;;13.50;100.00
51687;BME280;37774;52.192;4.584;2023-03-13T11:13:35;99520.66;;;13.63;100.00
51687;BME280;37774;52.192;4.584;2023-03-13T11:19:09;99493.31;;;13.51;100.00
51687;BME280;37774;52.192;4.584;2023-03-13T11:21:51;99476.03;;;13.49;100.00
51687;BME280;37774;52.192;4.584;2023-03-13T11:24:27;99461.19;;;13.49;100.00
51687;BME280;37774;52.192;4.584;2023-03-13T11:27:03;99521.72;;;13.80;100.00
51687;BME280;37774;52.192;4.584;2023-03-13T11:29:40;99515.72;;;13.78;100.00
51687;BME280;37774;52.192;4.584;2023-03-13T11:32:19;99468.06;;;13.52;100.00
51687;BME280;37774;52.192;4.584;2023-03-13T11:34:50;99431.22;;;13.37;100.00
51687;BME280;37774;52.192;4.584;2023-03-13T11:37:21;99383.31;;;12.97;100.00
51687;BME280;37774;52.192;4.584;2023-03-13T11:39:54;99522.91;;;13.72;100.00
51687;BME280;37774;52.192;4.584;2023-03-13T11:42:52;99520.78;;;13.60;100.00
51687;BME280;37774;52.192;4.584;2023-03-13T11:45:48;99520.13;;;13.55;100.00
51687;BME280;37774;52.192;4.584;2023-03-13T11:48:30;99525.03;;;13.40;100.00
51687;BME280;37774;52.192;4.584;2023-03-13T11:51:05;99523.59;;;13.33;100.00
51687;BME280;37774;52.192;4.584;2023-03-13T11:53:57;99390.41;;;12.49;100.00
51687;BME280;37774;52.192;4.584;2023-03-13T11:56:31;99527.00;;;13.35;100.00
51687;BME280;37774;52.192;4.584;2023-03-13T11:59:12;99470.38;;;13.15;100.00
51687;BME280;37774;52.192;4.584;2023-03-13T12:01:48;99520.53;;;13.22;100.00
51687;BME280;37774;52.192;4.584;2023-03-13T12:04:20;99498.66;;;13.04;100.00
51687;BME280;37774;52.192;4.584;2023-03-13T12:06:52;99468.69;;;12.92;100.00
51687;BME280;37774;52.192;4.584;2023-03-13T12:09:25;99292.50;;;11.97;100.00
51687;BME280;37774;52.192;4.584;2023-03-13T12:11:57;99188.34;;;11.29;100.00
51687;BME280;37774;52.192;4.584;2023-03-13T12:14:32;99488.31;;;13.23;100.00
51687;BME280;37774;52.192;4.584;2023-03-13T12:17:05;99488.69;;;13.36;100.00
51687;BME280;37774;52.192;4.584;2023-03-13T12:19:40;99493.69;;;13.63;100.00
51687;BME280;37774;52.192;4.584;2023-03-13T12:22:14;99505.53;;;13.71;100.00
51687;BME280;37774;52.192;4.584;2023-03-13T12:24:50;99504.09;;;13.64;100.00
51687;BME280;37774;52.192;4.584;2023-03-13T12:27:24;99487.25;;;13.51;100.00
51687;BME280;37774;52.192;4.584;2023-03-13T12:30:00;99484.53;;;13.75;100.00
51687;BME280;37774;52.192;4.584;2023-03-13T12:32:33;99497.75;;;13.70;100.00
51687;BME280;37774;52.192;4.584;2023-03-13T12:35:07;99507.03;;;13.34;100.00
51687;BME280;37774;52.192;4.584;2023-03-13T12:37:38;99436.91;;;13.04;100.00
51687;BME280;37774;52.192;4.584;2023-03-13T12:40:15;99442.28;;;13.22;100.00
51687;BME280;37774;52.192;4.584;2023-03-13T12:42:50;99440.09;;;13.33;100.00
51687;BME280;37774;52.192;4.584;2023-03-13T12:45:23;99433.34;;;13.50;100.00
51687;BME280;37774;52.192;4.584;2023-03-13T12:48:05;99448.69;;;13.57;100.00
51687;BME280;37774;52.192;4.584;2023-03-13T12:50:41;99197.00;;;12.21;100.00
51687;BME280;37774;52.192;4.584;2023-03-13T12:53:29;99400.19;;;13.31;100.00
51687;BME280;37774;52.192;4.584;2023-03-13T12:56:15;99432.50;;;13.70;100.00
51687;BME280;37774;52.192;4.584;2023-03-13T12:58:47;99434.13;;;13.72;100.00
51687;BME280;37774;52.192;4.584;2023-03-13T13:01:20;99381.47;;;13.42;100.00